Time;durP1;ratioP1;P1;durP2;ratioP2;P2;SDS_P1;SDS_P2;PMS_P1;PMS_P2;Temp;Humidity;BMP_temperature;BMP_pressure;BME280_temperature;BME280_humidity;BME280_pressure;Samples;Min_cycle;Max_cycle;Signal;HPM_P1;HPM_P2
2021/01/01 00:00:15;;;;;;;50.70;31.90;;;;;;;6.69;78.52;100084.47;5051284;28;20520;-66
2021/01/01 00:02:41;;;;;;;50.38;33.78;;;;;;;6.75;78.05;100071.94;5049372;28;20495;-64
2021/01/01 00:05:15;;;;;;;46.45;26.98;;;;;;;6.90;77.09;100077.78;5051079;28;20029;-67
2021/01/01 00:07:42;;;;;;;50.38;30.27;;;;;;;6.77;75.47;100045.53;5051157;28;20108;-66
2021/01/01 00:10:09;;;;;;;46.80;29.67;;;;;;;7.12;75.15;100089.00;5053648;28;20491;-66
2021/01/01 00:12:35;;;;;;;47.08;30.83;;;;;;;6.92;75.36;100091.53;5054112;28;20072;-66
2021/01/01 00:15:24;;;;;;;50.45;31.80;;;;;;;6.79;75.61;100105.50;5037348;28;20032;-66
2021/01/01 00:17:49;;;;;;;50.03;32.00;;;;;;;6.90;75.00;100110.25;5055240;28;20047;-69
2021/01/01 00:20:15;;;;;;;48.20;30.73;;;;;;;6.64;74.29;100080.03;5055526;28;20033;-66
2021/01/01 00:22:41;;;;;;;46.80;30.48;;;;;;;6.88;74.38;100112.75;5054604;28;20496;-66
2021/01/01 00:25:08;;;;;;;45.22;28.70;;;;;;;6.89;74.18;100113.59;5055091;28;20040;-66
2021/01/01 00:27:34;;;;;;;49.58;30.20;;;;;;;6.95;73.92;100119.91;5055014;28;20041;-65
2021/01/01 00:29:59;;;;;;;42.85;27.95;;;;;;;7.00;72.95;100111.53;5054999;28;20483;-66
2021/01/01 00:32:25;;;;;;;38.20;26.38;;;;;;;7.06;72.86;100128.09;5054706;28;20086;-67
2021/01/01 00:34:51;;;;;;;41.67;26.35;;;;;;;6.98;71.95;100132.00;5054734;28;20543;-66
2021/01/01 00:37:17;;;;;;;40.38;26.42;;;;;;;6.88;72.15;100140.06;5054492;28;20404;-68
2021/01/01 00:39:42;;;;;;;35.47;22.50;;;;;;;6.86;72.33;100127.19;5054933;28;20092;-69
2021/01/01 00:42:08;;;;;;;38.42;26.13;;;;;;;6.95;72.41;100140.44;5053334;28;20029;-66
2021/01/01 00:44:34;;;;;;;34.92;23.63;;;;;;;6.92;72.51;100132.59;5054701;28;20480;-65
2021/01/01 00:47:00;;;;;;;36.33;26.02;;;;;;;6.90;72.05;100133.34;5054557;28;20458;-68
2021/01/01 00:49:26;;;;;;;34.95;24.55;;;;;;;6.73;71.05;100148.84;5054370;28;20032;-66
2021/01/01 00:51:51;;;;;;;38.88;23.42;;;;;;;6.66;71.67;100148.47;5054143;28;20035;-69
2021/01/01 00:54:17;;;;;;;40.10;23.23;;;;;;;6.68;71.99;100151.97;5054506;28;20024;-66
2021/01/01 00:56:42;;;;;;;36.10;23.50;;;;;;;6.62;72.63;100162.84;5054301;28;20032;-66
2021/01/01 00:59:08;;;;;;;27.85;18.90;;;;;;;6.59;72.18;100153.31;5054423;28;20024;-66
2021/01/01 01:01:33;;;;;;;27.83;18.08;;;;;;;6.14;71.80;100106.69;5054553;28;20029;-65
2021/01/01 01:03:59;;;;;;;25.60;16.55;;;;;;;6.37;71.57;100165.88;5054187;28;20512;-65
2021/01/01 01:06:26;;;;;;;20.73;11.25;;;;;;;5.62;72.39;100141.66;5052715;28;20029;-71
2021/01/01 01:08:52;;;;;;;16.95;9.18;;;;;;;5.27;75.43;100180.78;5054226;28;20021;-68
2021/01/01 01:11:23;;;;;;;16.60;9.90;;;;;;;5.15;76.36;100184.44;5054201;28;20036;-65
2021/01/01 01:13:50;;;;;;;17.80;10.40;;;;;;;5.00;76.47;100133.31;5054012;28;20064;-66
2021/01/01 01:16:41;;;;;;;15.38;9.93;;;;;;;5.38;76.23;100174.53;5053921;28;20052;-72
2021/01/01 01:19:07;;;;;;;18.00;11.45;;;;;;;5.51;75.69;100173.53;5031735;28;20524;-67
2021/01/01 01:21:32;;;;;;;20.55;9.57;;;;;;;5.29;75.58;100139.09;5031080;28;20104;-66
2021/01/01 01:23:58;;;;;;;19.33;11.63;;;;;;;5.59;75.35;100169.66;5031647;28;20081;-66
2021/01/01 01:26:24;;;;;;;20.67;13.15;;;;;;;5.77;75.26;100166.28;5031587;28;20093;-65
2021/01/01 01:28:50;;;;;;;18.92;12.93;;;;;;;5.92;74.68;100171.31;5031676;28;20041;-64
2021/01/01 01:31:16;;;;;;;21.42;12.55;;;;;;;6.04;73.94;100163.41;5031349;28;20048;-68
2021/01/01 01:33:51;;;;;;;22.70;12.27;;;;;;;6.12;73.88;100164.69;5031615;28;20508;-66
2021/01/01 01:36:17;;;;;;;17.50;10.80;;;;;;;6.27;73.24;100167.13;5031388;28;20075;-66
2021/01/01 01:38:42;;;;;;;20.02;10.35;;;;;;;6.37;72.90;100168.44;5031446;28;20187;-66
2021/01/01 01:41:07;;;;;;;15.75;10.85;;;;;;;6.34;72.41;100142.66;5014807;28;20038;-65
2021/01/01 01:43:34;;;;;;;20.40;11.88;;;;;;;6.61;71.81;100173.91;5031309;28;20048;-64
2021/01/01 01:45:59;;;;;;;22.50;12.18;;;;;;;6.61;71.74;100161.94;5031265;28;20037;-67
2021/01/01 01:48:28;;;;;;;15.25;10.95;;;;;;;6.72;71.55;100174.41;5031320;28;20452;-65
2021/01/01 01:50:53;;;;;;;25.17;13.27;;;;;;;6.76;71.08;100173.75;5031184;28;20094;-69
2021/01/01 01:53:21;;;;;;;21.05;11.27;;;;;;;6.84;71.26;100175.00;5031142;28;20116;-69
2021/01/01 01:55:46;;;;;;;23.33;13.60;;;;;;;6.86;70.68;100169.94;5041016;28;20036;-66
2021/01/01 01:58:13;;;;;;;28.83;13.00;;;;;;;6.88;69.91;100171.75;5053195;28;20503;-66
2021/01/01 02:00:57;;;;;;;21.30;10.98;;;;;;;6.90;70.59;100174.41;5067756;28;20048;-68
2021/01/01 02:03:30;;;;;;;22.42;13.43;;;;;;;6.92;70.25;100167.66;5053344;28;20029;-65
2021/01/01 02:05:57;;;;;;;17.20;11.23;;;;;;;6.91;69.46;100171.03;5053335;28;20033;-68
2021/01/01 02:08:22;;;;;;;17.00;10.75;;;;;;;6.77;70.37;100171.25;5054768;28;20037;-68
2021/01/01 02:10:51;;;;;;;20.48;11.70;;;;;;;6.71;70.30;100178.66;5053921;28;20024;-68
2021/01/01 02:13:17;;;;;;;17.75;11.07;;;;;;;6.50;70.06;100181.06;5051692;28;20032;-66
2021/01/01 02:15:43;;;;;;;18.33;9.50;;;;;;;6.17;70.45;100183.75;5052772;28;20029;-69
2021/01/01 02:18:08;;;;;;;18.75;10.27;;;;;;;5.69;71.97;100195.78;5052715;28;20423;-69
2021/01/01 02:20:35;;;;;;;14.35;9.52;;;;;;;5.42;72.99;100199.53;5058571;28;20037;-69
2021/01/01 02:23:02;;;;;;;18.67;10.88;;;;;;;5.26;73.49;100196.91;5070085;28;20045;-65
2021/01/01 02:25:28;;;;;;;18.55;10.57;;;;;;;5.38;73.45;100195.03;5072188;28;20036;-65
2021/01/01 02:27:53;;;;;;;18.48;10.90;;;;;;;5.51;73.05;100196.56;5072184;28;20029;-68
2021/01/01 02:30:19;;;;;;;14.82;10.55;;;;;;;5.60;72.00;100191.06;5072600;28;20067;-66
2021/01/01 02:32:45;;;;;;;19.67;11.40;;;;;;;5.56;71.80;100166.06;5072213;28;20032;-68
2021/01/01 02:35:10;;;;;;;20.92;8.90;;;;;;;5.74;72.21;100189.19;5053755;28;20043;-70
2021/01/01 02:37:36;;;;;;;19.40;11.48;;;;;;;5.49;73.20;100191.34;5053010;28;20029;-66
2021/01/01 02:40:03;;;;;;;18.05;10.85;;;;;;;5.56;73.63;100202.81;5064631;28;20040;-68
2021/01/01 02:42:29;;;;;;;16.20;10.27;;;;;;;5.67;72.31;100205.94;5057952;28;20025;-67
2021/01/01 02:44:54;;;;;;;17.27;9.82;;;;;;;5.70;71.83;100205.22;5059447;28;20082;-67
2021/01/01 02:47:19;;;;;;;17.88;10.45;;;;;;;5.74;72.19;100199.44;5052045;28;20032;-68
2021/01/01 02:49:45;;;;;;;22.30;12.70;;;;;;;5.65;72.65;100190.47;5051806;28;20082;-66
2021/01/01 02:52:10;;;;;;;16.73;10.05;;;;;;;5.77;71.52;100203.06;5065822;28;20514;-66
2021/01/01 02:54:36;;;;;;;35.13;18.02;;;;;;;5.66;72.39;100196.50;5051296;28;20023;-66
2021/01/01 02:57:02;;;;;;;22.13;11.70;;;;;;;5.60;71.00;100173.13;5051242;28;20419;-67
2021/01/01 02:59:28;;;;;;;21.88;10.95;;;;;;;5.59;72.30;100185.03;5058943;28;20090;-67
2021/01/01 03:01:54;;;;;;;30.88;17.05;;;;;;;5.69;72.32;100201.75;5056737;28;20021;-66
2021/01/01 03:04:20;;;;;;;35.15;18.58;;;;;;;5.77;71.39;100208.19;5060261;28;20031;-69
2021/01/01 03:06:45;;;;;;;27.50;14.98;;;;;;;5.69;71.10;100183.84;5058235;28;20400;-68
2021/01/01 03:09:11;;;;;;;24.63;13.55;;;;;;;5.91;71.07;100213.16;5065836;28;20033;-66
2021/01/01 03:11:37;;;;;;;26.10;15.02;;;;;;;5.91;70.46;100211.44;5051259;28;20179;-64
2021/01/01 03:14:03;;;;;;;20.60;12.43;;;;;;;5.81;70.20;100214.34;5051461;28;20029;-66
2021/01/01 03:16:28;;;;;;;22.20;13.13;;;;;;;5.74;71.60;100204.56;5051111;28;20025;-70
2021/01/01 03:18:54;;;;;;;22.88;13.05;;;;;;;5.60;71.43;100181.69;5051463;28;20108;-64
2021/01/01 03:21:20;;;;;;;24.08;12.93;;;;;;;5.86;71.17;100206.88;5068182;28;20025;-68
2021/01/01 03:23:46;;;;;;;23.00;13.18;;;;;;;5.82;70.27;100209.28;5065907;28;20021;-68
2021/01/01 03:26:12;;;;;;;23.83;12.90;;;;;;;5.70;71.36;100205.22;5051544;28;20093;-65
2021/01/01 03:28:37;;;;;;;21.30;12.32;;;;;;;5.69;71.10;100221.38;5051470;28;20122;-69
2021/01/01 03:31:03;;;;;;;25.08;13.65;;;;;;;5.65;71.19;100223.78;5051498;28;20029;-70
2021/01/01 03:33:28;;;;;;;20.85;11.13;;;;;;;5.57;71.22;100209.69;5051282;28;20033;-71
2021/01/01 03:35:54;;;;;;;20.17;11.52;;;;;;;5.58;71.88;100219.16;5051425;28;20033;-65
2021/01/01 03:38:19;;;;;;;24.35;13.88;;;;;;;5.53;70.78;100212.00;5051034;28;20033;-70
2021/01/01 03:40:48;;;;;;;25.83;13.35;;;;;;;5.50;71.60;100205.03;5051125;28;20064;-67
2021/01/01 03:43:13;;;;;;;26.08;15.15;;;;;;;5.38;71.93;100199.28;5051260;28;20025;-69
2021/01/01 03:45:39;;;;;;;32.53;14.68;;;;;;;5.14;72.19;100179.25;5051076;28;20526;-68
2021/01/01 03:48:05;;;;;;;23.65;11.70;;;;;;;5.27;72.75;100212.38;5051151;28;20032;-68
2021/01/01 03:50:31;;;;;;;31.55;13.63;;;;;;;5.18;73.03;100209.31;5051298;28;20025;-64
2021/01/01 03:52:56;;;;;;;30.55;12.43;;;;;;;5.02;74.03;100211.03;5050648;28;20036;-68
2021/01/01 03:55:23;;;;;;;34.97;14.30;;;;;;;4.86;75.20;100218.69;5058071;28;20032;-69
2021/01/01 03:57:48;;;;;;;39.20;17.90;;;;;;;4.89;75.02;100218.81;5070788;28;20032;-69
2021/01/01 04:00:14;;;;;;;37.42;20.08;;;;;;;4.88;74.77;100219.63;5070874;28;20029;-66
2021/01/01 04:02:39;;;;;;;42.85;19.38;;;;;;;4.70;74.91;100181.13;5071211;28;20036;-70
2021/01/01 04:05:06;;;;;;;37.63;20.15;;;;;;;5.05;74.56;100222.22;5070648;28;20074;-69
2021/01/01 04:07:31;;;;;;;37.72;18.70;;;;;;;5.13;73.90;100234.63;5070799;28;20086;-70
2021/01/01 04:09:57;;;;;;;39.88;20.30;;;;;;;5.21;73.93;100232.53;5059907;28;20029;-69
2021/01/01 04:12:22;;;;;;;33.53;19.02;;;;;;;5.13;73.62;100200.50;5064244;28;20077;-70
2021/01/01 04:14:49;;;;;;;39.08;19.33;;;;;;;5.38;73.03;100241.09;5050811;28;20100;-69
2021/01/01 04:17:14;;;;;;;38.08;18.98;;;;;;;5.30;73.30;100224.47;5052412;28;20633;-72
2021/01/01 04:19:40;;;;;;;40.65;19.50;;;;;;;5.41;73.45;100253.19;5052530;28;20116;-70
2021/01/01 04:22:05;;;;;;;32.90;18.23;;;;;;;5.07;73.26;100198.50;5054137;28;20074;-71
2021/01/01 04:24:31;;;;;;;33.83;16.70;;;;;;;5.29;72.97;100267.06;5055140;28;20033;-70
2021/01/01 04:26:56;;;;;;;32.03;16.17;;;;;;;5.18;72.83;100260.50;5070030;28;20057;-72
2021/01/01 04:29:22;;;;;;;29.05;15.82;;;;;;;5.04;73.20;100264.84;5066279;28;20175;-71
2021/01/01 04:31:47;;;;;;;31.85;16.27;;;;;;;5.04;73.20;100274.22;5054263;28;20456;-73
2021/01/01 04:34:13;;;;;;;32.67;17.55;;;;;;;4.74;74.19;100281.91;5055020;28;20031;-69
2021/01/01 04:36:38;;;;;;;33.47;17.10;;;;;;;4.65;74.66;100290.81;5053928;28;20032;-69
2021/01/01 04:39:06;;;;;;;25.70;14.25;;;;;;;4.63;74.83;100289.84;5056583;28;20040;-69
2021/01/01 04:41:36;;;;;;;27.05;13.88;;;;;;;4.62;75.47;100300.88;5055385;28;20017;-65
2021/01/01 04:44:03;;;;;;;22.67;13.48;;;;;;;4.57;76.23;100292.03;5052921;28;20032;-71
2021/01/01 04:46:29;;;;;;;19.67;11.43;;;;;;;4.63;76.50;100297.50;5052207;28;20426;-72
2021/01/01 04:48:55;;;;;;;19.77;11.55;;;;;;;4.63;76.54;100288.97;5051538;28;20103;-71
2021/01/01 04:51:21;;;;;;;18.63;10.15;;;;;;;4.66;76.15;100295.13;5063255;28;20025;-70
2021/01/01 04:53:47;;;;;;;15.15;9.85;;;;;;;4.49;76.21;100295.84;5050580;28;20025;-74
2021/01/01 04:56:13;;;;;;;15.15;9.02;;;;;;;4.28;76.31;100293.75;5053136;28;20025;-69
2021/01/01 04:58:38;;;;;;;16.80;9.38;;;;;;;4.05;77.11;100297.53;5054839;28;20032;-70
2021/01/01 05:01:04;;;;;;;15.85;9.82;;;;;;;3.73;78.21;100288.78;5055536;28;20039;-66
2021/01/01 05:03:30;;;;;;;17.63;10.70;;;;;;;3.48;79.04;100271.94;5054397;28;20105;-68
2021/01/01 05:05:55;;;;;;;15.05;9.82;;;;;;;3.77;78.98;100302.63;5054324;28;20037;-69
2021/01/01 05:08:22;;;;;;;17.65;10.02;;;;;;;3.85;78.57;100299.75;5055602;28;20398;-68
2021/01/01 05:10:48;;;;;;;15.32;9.35;;;;;;;4.02;78.59;100297.31;5061896;28;20024;-72
2021/01/01 05:13:16;;;;;;;14.93;9.80;;;;;;;4.15;77.81;100311.72;5059959;28;20056;-66
2021/01/01 05:15:43;;;;;;;15.25;9.27;;;;;;;4.25;77.29;100308.94;5053514;28;20028;-66
2021/01/01 05:18:22;;;;;;;23.75;12.32;;;;;;;4.41;77.12;100323.50;5053571;28;20021;-67
2021/01/01 05:20:49;;;;;;;22.10;13.07;;;;;;;4.48;76.88;100306.84;5053246;28;20032;-69
2021/01/01 05:23:26;;;;;;;17.33;9.80;;;;;;;4.68;75.61;100319.09;5053505;28;20040;-70
2021/01/01 05:26:14;;;;;;;21.83;10.98;;;;;;;4.47;76.17;100328.94;5072815;28;20121;-69
2021/01/01 05:28:48;;;;;;;16.63;9.75;;;;;;;4.15;76.09;100292.16;5067988;28;20029;-68
2021/01/01 05:31:28;;;;;;;14.20;8.77;;;;;;;4.32;76.37;100330.63;5060586;28;20483;-64
2021/01/01 05:34:00;;;;;;;;;;;;;;;4.41;75.95;100338.84;5064534;28;20500;-66
2021/01/01 05:36:39;;;;;;;16.88;9.25;;;;;;;4.42;76.24;100340.59;5068438;28;19955;-68
2021/01/01 05:39:08;;;;;;;17.00;9.93;;;;;;;4.38;76.45;100328.44;5065054;28;20029;-65
2021/01/01 05:41:38;;;;;;;19.05;11.07;;;;;;;4.45;76.20;100322.88;5068294;28;20036;-62
2021/01/01 05:44:13;;;;;;;20.52;10.80;;;;;;;4.61;76.07;100342.56;5063847;28;20021;-68
2021/01/01 05:46:55;;;;;;;20.02;11.48;;;;;;;4.74;75.65;100349.28;5067981;28;20023;-71
2021/01/01 05:49:21;;;;;;;22.55;10.93;;;;;;;4.56;75.50;100323.53;5068365;28;20040;-68
2021/01/01 05:52:08;;;;;;;18.85;10.23;;;;;;;4.63;75.66;100351.19;5068040;28;20037;-67
2021/01/01 05:54:35;;;;;;;17.90;10.85;;;;;;;4.69;75.81;100359.22;5065705;28;20465;-67
2021/01/01 05:57:06;;;;;;;21.23;11.98;;;;;;;4.77;75.31;100357.16;5067614;28;20111;-66
2021/01/01 05:59:37;;;;;;;17.55;10.40;;;;;;;4.64;75.23;100352.97;5084177;28;20037;-67
2021/01/01 06:02:04;;;;;;;16.52;10.38;;;;;;;4.49;76.13;100383.63;5058027;28;20035;-67
2021/01/01 06:04:31;;;;;;;20.65;10.40;;;;;;;4.38;76.00;100354.84;5071786;28;20111;-71
2021/01/01 06:06:59;;;;;;;16.92;10.43;;;;;;;4.22;76.27;100347.06;5072499;28;20483;-69
2021/01/01 06:09:28;;;;;;;18.02;10.63;;;;;;;4.25;77.31;100392.38;5072517;28;20035;-68
2021/01/01 06:12:07;;;;;;;18.35;10.98;;;;;;;4.46;76.60;100390.22;5072676;28;20098;-68
2021/01/01 06:14:36;;;;;;;20.70;10.73;;;;;;;4.22;76.02;100334.28;5072542;28;20020;-68
2021/01/01 06:17:10;;;;;;;18.73;10.95;;;;;;;4.67;75.91;100393.19;5072627;28;20032;-73
2021/01/01 06:19:46;;;;;;;23.30;13.00;;;;;;;4.66;75.73;100397.44;5072503;28;20064;-71
2021/01/01 06:22:16;;;;;;;22.70;14.93;;;;;;;4.52;76.13;100403.38;5072502;28;20043;-72
2021/01/01 06:24:53;;;;;;;22.70;13.05;;;;;;;4.52;76.05;100403.38;5071291;28;20109;-67
2021/01/01 06:27:21;;;;;;;18.65;11.60;;;;;;;4.42;76.88;100409.59;5072423;28;20056;-67
2021/01/01 06:29:50;;;;;;;20.08;12.43;;;;;;;4.37;77.15;100403.34;5072352;28;20415;-70
2021/01/01 06:32:18;;;;;;;19.40;12.02;;;;;;;4.43;77.51;100413.94;5070086;28;20208;-70
2021/01/01 06:34:44;;;;;;;21.77;14.57;;;;;;;4.46;77.48;100424.34;5072306;28;20035;-68
2021/01/01 06:37:37;;;;;;;23.70;16.83;;;;;;;4.31;78.10;100429.41;5072147;28;20032;-67
2021/01/01 06:40:07;;;;;;;19.58;12.65;;;;;;;4.34;78.31;100431.28;5072249;28;20029;-68
2021/01/01 06:42:52;;;;;;;22.50;12.27;;;;;;;4.41;78.57;100438.53;5072061;28;20067;-68
2021/01/01 06:45:36;;;;;;;21.38;12.52;;;;;;;4.26;78.89;100430.81;5072048;28;20025;-68
2021/01/01 06:48:10;;;;;;;22.92;13.27;;;;;;;4.14;80.02;100417.28;5071729;28;20032;-69
2021/01/01 06:50:38;;;;;;;24.25;13.25;;;;;;;4.12;80.87;100421.41;5071630;28;20033;-69
2021/01/01 06:53:11;;;;;;;20.80;12.75;;;;;;;4.05;81.57;100427.81;5072039;28;20051;-68
2021/01/01 06:55:43;;;;;;;25.83;14.75;;;;;;;4.05;82.27;100426.13;5069437;28;20036;-68
2021/01/01 06:58:10;;;;;;;33.65;19.00;;;;;;;4.24;82.20;100432.38;5071869;28;20043;-71
2021/01/01 07:00:45;;;;;;;22.98;14.50;;;;;;;4.43;81.51;100438.63;5071543;28;20037;-70
2021/01/01 07:03:25;;;;;;;22.67;13.80;;;;;;;4.53;81.23;100452.03;5071943;28;20017;-68
2021/01/01 07:06:00;;;;;;;25.10;15.30;;;;;;;4.65;80.83;100445.94;5071433;28;20111;-68
2021/01/01 07:11:09;;;;;;;21.95;15.00;;;;;;;4.84;80.63;100453.00;5071641;28;20044;-70
2021/01/01 07:13:44;;;;;;;35.25;21.50;;;;;;;4.88;80.66;100456.66;5071700;28;20071;-68
2021/01/01 07:16:11;;;;;;;46.78;28.90;;;;;;;4.95;80.86;100453.66;5070155;28;20036;-71
2021/01/01 07:18:37;;;;;;;29.42;17.63;;;;;;;5.00;80.64;100463.34;5070930;28;20021;-72
2021/01/01 07:21:07;;;;;;;29.75;17.98;;;;;;;5.13;80.38;100452.16;5071602;28;20115;-68
2021/01/01 07:23:33;;;;;;;28.30;17.38;;;;;;;5.28;80.20;100457.31;5071542;28;20103;-68
2021/01/01 07:26:00;;;;;;;28.77;18.63;;;;;;;5.47;79.72;100463.47;5071387;28;20059;-68
2021/01/01 07:28:27;;;;;;;25.73;18.15;;;;;;;5.26;79.37;100440.97;5071250;28;20028;-68
2021/01/01 07:30:53;;;;;;;25.60;17.13;;;;;;;5.41;80.20;100473.34;5071332;28;20035;-68
2021/01/01 07:33:23;;;;;;;22.35;15.38;;;;;;;5.35;79.68;100423.56;5071505;28;20029;-73
2021/01/01 07:35:53;;;;;;;24.08;15.20;;;;;;;5.71;78.72;100468.22;5070984;28;20032;-68
2021/01/01 07:38:19;;;;;;;26.83;17.63;;;;;;;5.96;78.83;100475.63;5071446;28;20082;-68
2021/01/01 07:40:45;;;;;;;24.15;14.68;;;;;;;5.95;77.46;100438.84;5071357;28;20024;-69
2021/01/01 07:43:10;;;;;;;28.42;15.82;;;;;;;6.13;76.78;100439.03;5069115;28;20037;-69
2021/01/01 07:45:36;;;;;;;25.20;16.48;;;;;;;6.29;76.43;100435.59;5071119;28;20399;-68
2021/01/01 07:48:03;;;;;;;21.50;15.93;;;;;;;6.66;76.10;100479.41;5071047;28;20404;-68
2021/01/01 07:50:30;;;;;;;24.70;15.75;;;;;;;6.74;75.06;100461.03;5068351;28;20066;-68
2021/01/01 07:53:05;;;;;;;21.35;14.80;;;;;;;6.93;73.18;100480.81;5068772;28;20443;-67
2021/01/01 07:55:31;;;;;;;22.52;13.90;;;;;;;7.07;73.51;100491.81;5068679;28;20071;-68
2021/01/01 07:58:00;;;;;;;19.58;14.75;;;;;;;7.23;73.73;100495.16;5068698;28;20036;-70
2021/01/01 08:00:30;;;;;;;23.25;13.38;;;;;;;7.19;72.86;100472.69;5068737;28;20476;-69
2021/01/01 08:02:56;;;;;;;23.00;14.05;;;;;;;7.38;72.55;100497.63;5068578;28;20049;-68
2021/01/01 08:05:22;;;;;;;23.05;14.30;;;;;;;7.48;72.43;100489.56;5068730;28;20043;-68
2021/01/01 08:07:47;;;;;;;22.05;14.43;;;;;;;7.56;72.00;100497.66;5068574;28;20020;-68
2021/01/01 08:10:12;;;;;;;23.73;15.07;;;;;;;7.63;72.45;100494.59;5068550;28;20044;-72
2021/01/01 08:12:38;;;;;;;22.05;14.63;;;;;;;7.69;71.83;100499.13;5068593;28;20087;-70
2021/01/01 08:15:05;;;;;;;20.38;14.15;;;;;;;7.80;71.78;100499.66;5068398;28;20032;-73
2021/01/01 08:17:30;;;;;;;19.50;13.52;;;;;;;7.88;71.76;100506.94;5067947;28;20596;-68
2021/01/01 08:19:58;;;;;;;21.15;14.13;;;;;;;7.94;71.80;100507.22;5068488;28;20088;-68
2021/01/01 08:22:36;;;;;;;36.45;25.08;;;;;;;8.02;69.74;100499.00;5070466;28;20036;-68
2021/01/01 08:25:02;;;;;;;19.20;11.68;;;;;;;8.10;67.21;100505.41;5070712;28;20415;-72
2021/01/01 08:27:28;;;;;;;15.23;9.55;;;;;;;8.13;65.57;100500.38;5071128;28;20048;-72
2021/01/01 08:29:55;;;;;;;17.48;9.63;;;;;;;8.08;66.87;100507.88;5071262;28;20025;-69
2021/01/01 08:32:22;;;;;;;15.80;9.48;;;;;;;8.03;66.33;100496.50;5074666;28;20033;-74
2021/01/01 08:34:51;;;;;;;14.85;9.27;;;;;;;8.24;65.64;100498.34;5074559;28;20031;-68
2021/01/01 08:37:25;;;;;;;10.32;7.07;;;;;;;8.15;65.23;100496.22;5074076;28;20071;-74
2021/01/01 08:40:21;;;;;;;14.27;9.43;;;;;;;8.10;66.67;100506.28;5073449;28;20377;-70
2021/01/01 08:42:52;;;;;;;16.27;9.27;;;;;;;8.10;66.30;100501.13;5051844;28;20036;-68
2021/01/01 08:45:18;;;;;;;14.40;8.75;;;;;;;8.16;66.88;100505.69;5031731;28;20463;-68
2021/01/01 08:47:46;;;;;;;13.82;9.05;;;;;;;8.29;65.70;100511.38;5032165;28;20038;-70
2021/01/01 08:50:29;;;;;;;13.38;8.75;;;;;;;8.30;65.71;100508.91;5031830;28;20500;-73
2021/01/01 08:53:03;;;;;;;14.52;9.38;;;;;;;8.44;67.04;100504.41;5031983;28;20037;-72
2021/01/01 08:55:29;;;;;;;17.08;10.05;;;;;;;8.51;66.38;100506.47;5032231;28;20108;-68
2021/01/01 08:58:06;;;;;;;17.50;10.07;;;;;;;8.62;65.62;100509.53;5031937;28;20113;-72
2021/01/01 09:00:32;;;;;;;14.00;9.30;;;;;;;8.61;66.21;100504.31;5031882;28;20112;-71
2021/01/01 09:02:58;;;;;;;15.68;9.88;;;;;;;8.73;65.52;100507.44;5031975;28;20113;-69
2021/01/01 09:05:26;;;;;;;13.57;9.73;;;;;;;8.77;66.30;100514.47;5031560;28;20047;-69
2021/01/01 09:08:12;;;;;;;14.20;8.55;;;;;;;8.86;64.73;100512.34;5031488;28;20044;-68
2021/01/01 09:10:48;;;;;;;14.65;9.75;;;;;;;8.94;65.73;100509.22;5031565;28;20033;-69
2021/01/01 09:13:21;;;;;;;16.30;10.30;;;;;;;9.12;65.95;100503.97;5011640;28;20600;-68
2021/01/01 09:15:58;;;;;;;15.18;10.00;;;;;;;9.20;66.77;100506.06;5011488;28;20125;-68
2021/01/01 09:18:24;;;;;;;15.57;11.00;;;;;;;9.46;65.94;100502.84;5019190;28;20128;-69
2021/01/01 09:20:49;;;;;;;15.88;10.13;;;;;;;9.61;64.62;100512.91;5051474;28;20495;-69
2021/01/01 09:23:15;;;;;;;15.23;10.15;;;;;;;9.74;64.63;100510.03;5051319;28;20037;-68
2021/01/01 09:25:41;;;;;;;16.15;11.20;;;;;;;9.90;65.38;100510.66;5051263;28;20053;-72
2021/01/01 09:28:11;;;;;;;17.40;11.52;;;;;;;9.97;64.58;100499.75;5051124;28;20488;-71
2021/01/01 09:30:37;;;;;;;14.45;8.98;;;;;;;10.16;62.44;100498.78;5050825;28;20039;-69
2021/01/01 09:33:06;;;;;;;15.57;7.18;;;;;;;10.38;59.70;100497.97;5051107;28;20111;-68
2021/01/01 09:35:31;;;;;;;6.22;4.07;;;;;;;10.22;57.23;100490.41;5051168;28;20407;-68
2021/01/01 09:37:59;;;;;;;6.60;4.32;;;;;;;10.01;58.10;100509.38;5049511;28;20066;-73
2021/01/01 09:40:30;;;;;;;8.70;4.78;;;;;;;10.09;58.27;100513.13;5071175;28;20031;-71
2021/01/01 09:43:02;;;;;;;9.82;5.18;;;;;;;10.19;57.06;100510.13;5053562;28;20024;-70
2021/01/01 09:45:28;;;;;;;12.07;6.88;;;;;;;10.35;58.08;100506.44;5053028;28;20025;-69
2021/01/01 09:47:53;;;;;;;8.55;4.88;;;;;;;10.06;57.65;100501.84;5053075;28;20124;-73
2021/01/01 09:50:19;;;;;;;8.65;4.97;;;;;;;10.14;58.56;100514.22;5053089;28;20470;-69
2021/01/01 09:52:46;;;;;;;7.82;4.57;;;;;;;10.10;56.77;100499.41;5052825;28;20445;-69
2021/01/01 09:55:11;;;;;;;6.30;4.07;;;;;;;10.15;56.08;100502.19;5100792;28;20056;-68
2021/01/01 09:57:38;;;;;;;8.80;4.88;;;;;;;10.39;55.41;100497.13;5072650;28;20071;-69
2021/01/01 10:00:08;;;;;;;8.63;4.70;;;;;;;10.54;55.75;100496.81;5073117;28;20025;-69
2021/01/01 10:02:34;;;;;;;6.53;3.67;;;;;;;10.36;54.34;100504.75;5072718;28;20036;-69
2021/01/01 10:04:59;;;;;;;7.00;3.95;;;;;;;10.40;53.49;100487.69;5072997;28;20028;-74
2021/01/01 10:07:27;;;;;;;16.65;10.65;;;;;;;10.63;54.85;100506.59;5073273;28;20028;-69
2021/01/01 10:09:52;;;;;;;8.15;4.55;;;;;;;10.53;53.44;100502.81;5072655;28;20078;-68
2021/01/01 10:12:18;;;;;;;18.13;11.40;;;;;;;10.62;55.80;100497.13;5072392;28;20033;-69
2021/01/01 10:14:43;;;;;;;24.95;16.13;;;;;;;10.58;54.72;100500.38;5072781;28;20103;-71
2021/01/01 10:17:09;;;;;;;23.30;15.85;;;;;;;10.59;53.68;100486.66;5072531;28;20538;-69
2021/01/01 10:19:34;;;;;;;12.43;7.05;;;;;;;10.64;53.73;100490.28;5072411;28;20032;-69
2021/01/01 10:22:00;;;;;;;13.23;7.28;;;;;;;10.50;54.56;100489.78;5072337;28;20124;-71
2021/01/01 10:24:25;;;;;;;8.13;4.80;;;;;;;10.61;54.67;100500.53;5072326;28;20032;-68
2021/01/01 10:26:55;;;;;;;28.10;15.95;;;;;;;10.53;55.30;100464.09;5070499;28;21028;-71
2021/01/01 10:29:21;;;;;;;8.60;5.05;;;;;;;10.56;55.35;100468.50;5071377;28;20146;-70
2021/01/01 10:31:47;;;;;;;11.23;6.05;;;;;;;10.66;54.03;100492.09;5071165;28;20024;-73
2021/01/01 10:34:12;;;;;;;24.15;14.48;;;;;;;10.79;54.23;100490.88;5060462;28;20043;-70
2021/01/01 10:36:38;;;;;;;14.80;8.40;;;;;;;10.81;54.09;100485.75;5069322;28;20233;-71
2021/01/01 10:39:08;;;;;;;8.02;5.03;;;;;;;10.65;54.80;100477.47;5071294;28;20040;-71
2021/01/01 10:41:35;;;;;;;9.40;5.70;;;;;;;10.95;54.31;100487.16;5071182;28;20099;-70
2021/01/01 10:44:02;;;;;;;9.20;5.38;;;;;;;11.03;55.72;100477.06;5071416;28;20021;-71
2021/01/01 10:46:29;;;;;;;42.03;25.17;;;;;;;11.12;54.68;100474.78;5080733;28;20028;-73
2021/01/01 10:48:55;;;;;;;46.17;28.73;;;;;;;11.22;53.88;100482.88;5052433;28;20582;-71
2021/01/01 10:51:22;;;;;;;23.10;15.05;;;;;;;11.33;52.66;100463.44;5070769;28;20399;-73
2021/01/01 10:53:49;;;;;;;10.02;5.32;;;;;;;11.71;51.94;100470.72;5049458;28;20033;-70
2021/01/01 10:56:26;;;;;;;11.45;6.95;;;;;;;11.80;52.63;100439.94;5070731;28;20556;-69
2021/01/01 10:58:52;;;;;;;19.00;11.75;;;;;;;11.92;52.45;100462.75;5070903;28;20107;-73
2021/01/01 11:01:22;;;;;;;11.60;7.03;;;;;;;11.93;51.70;100439.50;5070974;28;20025;-75
2021/01/01 11:03:48;;;;;;;9.98;5.95;;;;;;;11.84;52.77;100453.88;5071727;28;20395;-70
2021/01/01 11:06:15;;;;;;;17.38;11.50;;;;;;;11.91;53.43;100467.06;5071580;28;20028;-73
2021/01/01 11:08:42;;;;;;;21.30;16.13;;;;;;;11.85;52.71;100459.09;5069752;28;20426;-69
2021/01/01 11:11:12;;;;;;;10.57;6.28;;;;;;;12.12;51.79;100461.72;5069988;28;20196;-71
2021/01/01 11:13:45;;;;;;;13.23;9.80;;;;;;;12.13;52.01;100460.84;5070999;28;20158;-69
2021/01/01 12:25:26;;;;;;;5.65;3.88;;;;;;;13.25;48.03;100497.69;5074808;28;20090;-71
2021/01/01 12:28:12;;;;;;;5.28;3.45;;;;;;;13.22;47.53;100495.88;5074609;28;20111;-70
2021/01/01 12:30:41;;;;;;;5.20;3.35;;;;;;;13.30;47.21;100497.81;5092812;28;20125;-71
2021/01/01 12:33:08;;;;;;;7.82;3.78;;;;;;;13.32;47.20;100502.19;5075722;28;20094;-71
2021/01/01 12:35:37;;;;;;;7.03;3.38;;;;;;;13.31;47.34;100503.03;5092753;28;20135;-70